sensor_id;sensor_type;location;lat;lon;timestamp;pressure;altitude;pressure_sealevel;temperature;humidity
40592;BME280;26301;42.832;23.918;2024-01-15T00:01:44;92478.78;;;-5.38;97.41
40592;BME280;26301;42.832;23.918;2024-01-15T00:04:10;92437.03;;;-5.73;97.92
40592;BME280;26301;42.832;23.918;2024-01-15T00:06:36;92434.19;;;-5.78;97.65
40592;BME280;26301;42.832;23.918;2024-01-15T00:09:02;92485.69;;;-5.40;97.96
40592;BME280;26301;42.832;23.918;2024-01-15T00:11:27;92434.69;;;-5.66;98.89
40592;BME280;26301;42.832;23.918;2024-01-15T00:13:53;92453.41;;;-5.69;99.00
40592;BME280;26301;42.832;23.918;2024-01-15T00:16:18;92475.00;;;-5.50;99.33
40592;BME280;26301;42.832;23.918;2024-01-15T00:18:44;92477.69;;;-5.43;99.53
40592;BME280;26301;42.832;23.918;2024-01-15T00:21:09;92439.72;;;-5.75;99.97
40592;BME280;26301;42.832;23.918;2024-01-15T00:23:35;92448.56;;;-5.62;100.00
40592;BME280;26301;42.832;23.918;2024-01-15T00:26:00;92431.41;;;-5.67;100.00
40592;BME280;26301;42.832;23.918;2024-01-15T00:28:26;92478.94;;;-5.39;99.38
40592;BME280;26301;42.832;23.918;2024-01-15T00:30:51;92452.63;;;-5.61;99.11
40592;BME280;26301;42.832;23.918;2024-01-15T00:33:17;92453.91;;;-5.65;100.00
40592;BME280;26301;42.832;23.918;2024-01-15T00:35:42;92476.59;;;-5.41;99.37
40592;BME280;26301;42.832;23.918;2024-01-15T00:38:08;92440.03;;;-5.69;99.44
40592;BME280;26301;42.832;23.918;2024-01-15T00:40:33;92440.81;;;-5.69;100.00
40592;BME280;26301;42.832;23.918;2024-01-15T00:42:59;92481.13;;;-5.53;100.00
40592;BME280;26301;42.832;23.918;2024-01-15T00:45:24;92487.28;;;-5.47;100.00
40592;BME280;26301;42.832;23.918;2024-01-15T00:47:50;92485.38;;;-5.45;100.00
40592;BME280;26301;42.832;23.918;2024-01-15T00:50:15;92467.94;;;-5.38;100.00
40592;BME280;26301;42.832;23.918;2024-01-15T00:52:41;92444.78;;;-5.58;100.00
40592;BME280;26301;42.832;23.918;2024-01-15T00:55:06;92440.69;;;-5.51;100.00
40592;BME280;26301;42.832;23.918;2024-01-15T00:57:32;92443.38;;;-5.53;100.00
40592;BME280;26301;42.832;23.918;2024-01-15T00:59:58;92443.22;;;-5.43;100.00
40592;BME280;26301;42.832;23.918;2024-01-15T01:02:23;92476.13;;;-5.12;100.00
40592;BME280;26301;42.832;23.918;2024-01-15T01:04:49;92473.31;;;-5.17;100.00
40592;BME280;26301;42.832;23.918;2024-01-15T01:07:15;92483.34;;;-5.09;100.00
40592;BME280;26301;42.832;23.918;2024-01-15T01:09:40;92426.88;;;-5.31;100.00
40592;BME280;26301;42.832;23.918;2024-01-15T01:12:06;92445.13;;;-5.20;100.00
40592;BME280;26301;42.832;23.918;2024-01-15T01:14:31;92463.84;;;-5.07;100.00
40592;BME280;26301;42.832;23.918;2024-01-15T01:16:57;92461.47;;;-4.75;100.00
40592;BME280;26301;42.832;23.918;2024-01-15T01:19:22;92426.53;;;-4.95;100.00
40592;BME280;26301;42.832;23.918;2024-01-15T01:21:48;92426.72;;;-4.96;100.00
40592;BME280;26301;42.832;23.918;2024-01-15T01:24:14;92422.75;;;-4.91;100.00
40592;BME280;26301;42.832;23.918;2024-01-15T01:26:39;92376.34;;;-5.21;100.00
40592;BME280;26301;42.832;23.918;2024-01-15T01:29:05;92427.91;;;-4.76;100.00
40592;BME280;26301;42.832;23.918;2024-01-15T01:31:30;92455.13;;;-4.47;100.00
40592;BME280;26301;42.832;23.918;2024-01-15T01:33:55;92428.06;;;-4.61;100.00
40592;BME280;26301;42.832;23.918;2024-01-15T01:36:21;92446.28;;;-4.43;100.00
40592;BME280;26301;42.832;23.918;2024-01-15T01:38:46;92444.84;;;-4.29;100.00
40592;BME280;26301;42.832;23.918;2024-01-15T01:41:12;92457.38;;;-4.13;100.00
40592;BME280;26301;42.832;23.918;2024-01-15T01:43:37;92431.69;;;-4.16;100.00
40592;BME280;26301;42.832;23.918;2024-01-15T01:46:03;92456.53;;;-3.97;100.00
40592;BME280;26301;42.832;23.918;2024-01-15T01:48:30;92450.09;;;-3.99;100.00
40592;BME280;26301;42.832;23.918;2024-01-15T01:50:58;92461.97;;;-3.77;100.00
40592;BME280;26301;42.832;23.918;2024-01-15T01:53:26;92451.75;;;-3.83;100.00
40592;BME280;26301;42.832;23.918;2024-01-15T01:55:52;92463.56;;;-3.76;100.00
40592;BME280;26301;42.832;23.918;2024-01-15T01:58:19;92413.31;;;-3.94;100.00
40592;BME280;26301;42.832;23.918;2024-01-15T02:00:46;92412.06;;;-3.98;100.00
40592;BME280;26301;42.832;23.918;2024-01-15T02:03:12;92357.06;;;-4.33;100.00
40592;BME280;26301;42.832;23.918;2024-01-15T02:05:39;92410.47;;;-3.91;100.00
40592;BME280;26301;42.832;23.918;2024-01-15T02:08:05;92407.56;;;-3.79;100.00
40592;BME280;26301;42.832;23.918;2024-01-15T02:10:30;92441.16;;;-3.48;100.00
40592;BME280;26301;42.832;23.918;2024-01-15T02:12:56;92384.25;;;-3.81;98.60
40592;BME280;26301;42.832;23.918;2024-01-15T02:15:21;92407.38;;;-3.70;98.30
40592;BME280;26301;42.832;23.918;2024-01-15T02:17:57;92434.19;;;-3.46;97.55
40592;BME280;26301;42.832;23.918;2024-01-15T02:20:23;92402.69;;;-3.81;97.37
40592;BME280;26301;42.832;23.918;2024-01-15T02:22:49;92434.38;;;-3.55;97.02
40592;BME280;26301;42.832;23.918;2024-01-15T02:25:14;92372.41;;;-3.81;97.29
40592;BME280;26301;42.832;23.918;2024-01-15T02:27:40;92397.13;;;-3.76;97.55
40592;BME280;26301;42.832;23.918;2024-01-15T02:30:08;92421.09;;;-3.49;97.36
40592;BME280;26301;42.832;23.918;2024-01-15T02:32:35;92411.84;;;-3.57;97.62
40592;BME280;26301;42.832;23.918;2024-01-15T02:35:00;92386.84;;;-3.66;96.79
40592;BME280;26301;42.832;23.918;2024-01-15T02:37:26;92423.41;;;-3.39;96.71
40592;BME280;26301;42.832;23.918;2024-01-15T02:39:51;92394.56;;;-3.68;96.04
40592;BME280;26301;42.832;23.918;2024-01-15T02:42:17;92416.34;;;-3.44;97.17
40592;BME280;26301;42.832;23.918;2024-01-15T02:44:42;92402.97;;;-3.53;97.64
40592;BME280;26301;42.832;23.918;2024-01-15T02:47:07;92392.63;;;-3.58;97.31
40592;BME280;26301;42.832;23.918;2024-01-15T02:49:33;92385.72;;;-3.64;97.23
40592;BME280;26301;42.832;23.918;2024-01-15T02:51:59;92392.44;;;-3.56;96.86
40592;BME280;26301;42.832;23.918;2024-01-15T02:54:24;92390.69;;;-3.56;96.28
40592;BME280;26301;42.832;23.918;2024-01-15T02:56:49;92378.31;;;-3.65;96.13
40592;BME280;26301;42.832;23.918;2024-01-15T02:59:15;92394.97;;;-3.56;96.03
40592;BME280;26301;42.832;23.918;2024-01-15T03:01:40;92382.84;;;-3.61;95.37
40592;BME280;26301;42.832;23.918;2024-01-15T03:04:07;92393.75;;;-3.60;95.34
40592;BME280;26301;42.832;23.918;2024-01-15T03:06:34;92355.63;;;-3.97;96.40
40592;BME280;26301;42.832;23.918;2024-01-15T03:09:00;92378.56;;;-3.83;96.65
40592;BME280;26301;42.832;23.918;2024-01-15T03:11:26;92351.06;;;-4.01;96.97
40592;BME280;26301;42.832;23.918;2024-01-15T03:13:52;92352.78;;;-3.94;97.51
40592;BME280;26301;42.832;23.918;2024-01-15T03:16:17;92352.16;;;-3.96;100.00
40592;BME280;26301;42.832;23.918;2024-01-15T03:18:45;92341.09;;;-3.95;100.00
40592;BME280;26301;42.832;23.918;2024-01-15T03:21:10;92351.78;;;-3.84;100.00
40592;BME280;26301;42.832;23.918;2024-01-15T03:23:36;92329.09;;;-3.93;100.00
40592;BME280;26301;42.832;23.918;2024-01-15T03:26:01;92327.25;;;-3.99;98.96
40592;BME280;26301;42.832;23.918;2024-01-15T03:28:27;92364.59;;;-3.71;98.45
40592;BME280;26301;42.832;23.918;2024-01-15T03:30:52;92359.91;;;-3.74;97.59
40592;BME280;26301;42.832;23.918;2024-01-15T03:33:17;92367.03;;;-3.78;96.70
40592;BME280;26301;42.832;23.918;2024-01-15T03:35:43;92365.06;;;-3.91;96.71
40592;BME280;26301;42.832;23.918;2024-01-15T03:38:08;92304.09;;;-4.33;97.29
40592;BME280;26301;42.832;23.918;2024-01-15T03:40:34;92312.19;;;-4.38;100.00
40592;BME280;26301;42.832;23.918;2024-01-15T03:42:59;92312.50;;;-4.41;100.00
40592;BME280;26301;42.832;23.918;2024-01-15T03:45:25;92357.28;;;-4.12;100.00
40592;BME280;26301;42.832;23.918;2024-01-15T03:47:50;92316.06;;;-4.27;100.00
40592;BME280;26301;42.832;23.918;2024-01-15T03:50:15;92319.66;;;-4.22;99.96
40592;BME280;26301;42.832;23.918;2024-01-15T03:52:41;92349.09;;;-4.14;100.00
40592;BME280;26301;42.832;23.918;2024-01-15T03:55:07;92317.00;;;-4.28;100.00
40592;BME280;26301;42.832;23.918;2024-01-15T03:57:32;92339.97;;;-4.15;100.00
40592;BME280;26301;42.832;23.918;2024-01-15T03:59:57;92312.59;;;-4.26;100.00
40592;BME280;26301;42.832;23.918;2024-01-15T04:02:23;92311.97;;;-4.28;100.00
40592;BME280;26301;42.832;23.918;2024-01-15T04:04:48;92297.41;;;-4.41;100.00
40592;BME280;26301;42.832;23.918;2024-01-15T04:07:14;92244.00;;;-4.76;100.00
40592;BME280;26301;42.832;23.918;2024-01-15T04:09:39;92328.97;;;-4.22;100.00
40592;BME280;26301;42.832;23.918;2024-01-15T04:12:05;92288.44;;;-4.52;100.00
40592;BME280;26301;42.832;23.918;2024-01-15T04:14:31;92301.47;;;-4.40;100.00
40592;BME280;26301;42.832;23.918;2024-01-15T04:16:56;92305.38;;;-4.29;100.00
40592;BME280;26301;42.832;23.918;2024-01-15T04:19:22;92285.28;;;-4.46;100.00
40592;BME280;26301;42.832;23.918;2024-01-15T04:21:47;92286.31;;;-4.32;100.00
40592;BME280;26301;42.832;23.918;2024-01-15T04:24:13;92308.63;;;-3.98;100.00
40592;BME280;26301;42.832;23.918;2024-01-15T04:26:38;92291.25;;;-3.70;100.00
40592;BME280;26301;42.832;23.918;2024-01-15T04:29:04;92308.13;;;-3.32;99.96
40592;BME280;26301;42.832;23.918;2024-01-15T04:31:29;92274.13;;;-3.22;98.26
40592;BME280;26301;42.832;23.918;2024-01-15T04:33:54;92286.50;;;-2.82;95.41
40592;BME280;26301;42.832;23.918;2024-01-15T04:36:20;92276.25;;;-2.59;92.88
40592;BME280;26301;42.832;23.918;2024-01-15T04:38:45;92274.28;;;-2.27;90.06
40592;BME280;26301;42.832;23.918;2024-01-15T04:41:12;92270.47;;;-2.17;88.52
40592;BME280;26301;42.832;23.918;2024-01-15T04:43:38;92250.50;;;-2.12;88.03
40592;BME280;26301;42.832;23.918;2024-01-15T04:46:05;92303.28;;;-1.66;87.34
40592;BME280;26301;42.832;23.918;2024-01-15T04:48:32;92250.34;;;-1.89;86.89
40592;BME280;26301;42.832;23.918;2024-01-15T04:50:57;92285.03;;;-1.61;86.18
40592;BME280;26301;42.832;23.918;2024-01-15T04:53:23;92279.97;;;-1.61;85.65
40592;BME280;26301;42.832;23.918;2024-01-15T04:55:48;92275.06;;;-1.63;85.59
40592;BME280;26301;42.832;23.918;2024-01-15T04:58:14;92268.81;;;-1.67;85.07
40592;BME280;26301;42.832;23.918;2024-01-15T05:00:39;92255.31;;;-1.74;85.71
40592;BME280;26301;42.832;23.918;2024-01-15T05:03:04;92268.44;;;-1.64;85.33
40592;BME280;26301;42.832;23.918;2024-01-15T05:05:30;92283.94;;;-1.52;85.22
40592;BME280;26301;42.832;23.918;2024-01-15T05:07:55;92299.69;;;-1.56;85.80
40592;BME280;26301;42.832;23.918;2024-01-15T05:10:21;92286.00;;;-1.62;85.47
40592;BME280;26301;42.832;23.918;2024-01-15T05:12:46;92273.22;;;-1.75;85.60
40592;BME280;26301;42.832;23.918;2024-01-15T05:15:12;92281.16;;;-1.78;85.92
40592;BME280;26301;42.832;23.918;2024-01-15T05:17:37;92294.88;;;-1.73;85.65
40592;BME280;26301;42.832;23.918;2024-01-15T05:20:03;92294.03;;;-1.80;85.81
40592;BME280;26301;42.832;23.918;2024-01-15T05:22:29;92297.19;;;-1.93;85.98
40592;BME280;26301;42.832;23.918;2024-01-15T05:24:55;92290.31;;;-1.99;86.04
40592;BME280;26301;42.832;23.918;2024-01-15T05:27:20;92263.97;;;-2.26;86.19
40592;BME280;26301;42.832;23.918;2024-01-15T05:29:46;92287.25;;;-2.16;86.36
40592;BME280;26301;42.832;23.918;2024-01-15T05:32:11;92265.84;;;-2.35;86.16
40592;BME280;26301;42.832;23.918;2024-01-15T05:34:37;92289.81;;;-2.31;85.84
40592;BME280;26301;42.832;23.918;2024-01-15T05:37:02;92257.28;;;-2.70;86.96
40592;BME280;26301;42.832;23.918;2024-01-15T05:39:28;92259.13;;;-2.79;87.34
40592;BME280;26301;42.832;23.918;2024-01-15T05:41:53;92275.41;;;-2.66;87.47
40592;BME280;26301;42.832;23.918;2024-01-15T05:44:19;92273.50;;;-2.79;87.80
40592;BME280;26301;42.832;23.918;2024-01-15T05:46:44;92270.63;;;-2.91;88.71
40592;BME280;26301;42.832;23.918;2024-01-15T05:49:10;92279.59;;;-2.88;88.73
40592;BME280;26301;42.832;23.918;2024-01-15T05:51:35;92248.50;;;-3.18;89.48
40592;BME280;26301;42.832;23.918;2024-01-15T05:54:01;92286.13;;;-2.94;89.36
40592;BME280;26301;42.832;23.918;2024-01-15T05:56:26;92280.81;;;-2.99;89.44
40592;BME280;26301;42.832;23.918;2024-01-15T05:58:52;92272.81;;;-3.03;89.92
40592;BME280;26301;42.832;23.918;2024-01-15T06:01:17;92261.84;;;-3.10;91.19
40592;BME280;26301;42.832;23.918;2024-01-15T06:03:43;92239.53;;;-3.36;90.57
40592;BME280;26301;42.832;23.918;2024-01-15T06:06:08;92237.97;;;-3.37;90.96
40592;BME280;26301;42.832;23.918;2024-01-15T06:08:34;92276.53;;;-3.13;90.86
40592;BME280;26301;42.832;23.918;2024-01-15T06:10:59;92262.53;;;-3.31;90.97
40592;BME280;26301;42.832;23.918;2024-01-15T06:13:25;92265.56;;;-3.35;91.80
40592;BME280;26301;42.832;23.918;2024-01-15T06:15:51;92265.56;;;-3.35;92.77
40592;BME280;26301;42.832;23.918;2024-01-15T06:18:16;92241.16;;;-3.43;92.97
40592;BME280;26301;42.832;23.918;2024-01-15T06:20:42;92275.25;;;-3.24;91.98
40592;BME280;26301;42.832;23.918;2024-01-15T06:23:08;92228.38;;;-3.41;92.08
40592;BME280;26301;42.832;23.918;2024-01-15T06:25:33;92200.31;;;-3.61;92.62
40592;BME280;26301;42.832;23.918;2024-01-15T06:27:58;92264.25;;;-3.31;92.99
40592;BME280;26301;42.832;23.918;2024-01-15T06:30:24;92263.38;;;-3.24;93.99
40592;BME280;26301;42.832;23.918;2024-01-15T06:32:49;92242.13;;;-3.29;94.25
40592;BME280;26301;42.832;23.918;2024-01-15T06:35:15;92248.59;;;-3.12;94.95
40592;BME280;26301;42.832;23.918;2024-01-15T06:37:41;92222.19;;;-3.39;96.80
40592;BME280;26301;42.832;23.918;2024-01-15T06:40:07;92224.44;;;-3.29;97.59
40592;BME280;26301;42.832;23.918;2024-01-15T06:42:33;92242.50;;;-3.03;97.94
40592;BME280;26301;42.832;23.918;2024-01-15T06:44:58;92214.50;;;-3.16;99.19
40592;BME280;26301;42.832;23.918;2024-01-15T06:47:24;92193.88;;;-3.34;99.42
40592;BME280;26301;42.832;23.918;2024-01-15T06:49:49;92255.28;;;-2.89;100.00
40592;BME280;26301;42.832;23.918;2024-01-15T06:52:17;92210.34;;;-3.09;100.00
40592;BME280;26301;42.832;23.918;2024-01-15T06:54:42;92228.97;;;-2.95;100.00
40592;BME280;26301;42.832;23.918;2024-01-15T06:57:08;92156.97;;;-3.35;100.00
40592;BME280;26301;42.832;23.918;2024-01-15T06:59:34;92228.00;;;-2.79;100.00
40592;BME280;26301;42.832;23.918;2024-01-15T07:02:01;92214.75;;;-2.81;100.00
40592;BME280;26301;42.832;23.918;2024-01-15T07:04:26;92224.19;;;-2.54;100.00
40592;BME280;26301;42.832;23.918;2024-01-15T07:06:52;92235.72;;;-2.30;100.00
40592;BME280;26301;42.832;23.918;2024-01-15T07:09:17;92261.19;;;-1.95;100.00
40592;BME280;26301;42.832;23.918;2024-01-15T07:11:46;92229.66;;;-1.92;100.00
40592;BME280;26301;42.832;23.918;2024-01-15T07:14:12;92242.38;;;-1.57;100.00
40592;BME280;26301;42.832;23.918;2024-01-15T07:16:38;92254.22;;;-1.36;100.00
40592;BME280;26301;42.832;23.918;2024-01-15T07:19:03;92243.09;;;-1.14;100.00
40592;BME280;26301;42.832;23.918;2024-01-15T07:21:29;92210.69;;;-1.19;98.67
40592;BME280;26301;42.832;23.918;2024-01-15T07:23:55;92242.09;;;-0.78;97.40
40592;BME280;26301;42.832;23.918;2024-01-15T07:26:20;92238.47;;;-0.56;98.74
40592;BME280;26301;42.832;23.918;2024-01-15T07:28:46;92241.50;;;-0.26;94.92
40592;BME280;26301;42.832;23.918;2024-01-15T07:31:12;92244.13;;;0.41;75.71
40592;BME280;26301;42.832;23.918;2024-01-15T07:33:37;92237.69;;;0.72;75.65
40592;BME280;26301;42.832;23.918;2024-01-15T07:36:03;92215.19;;;0.88;70.12
40592;BME280;26301;42.832;23.918;2024-01-15T07:38:29;92247.75;;;1.25;77.14
40592;BME280;26301;42.832;23.918;2024-01-15T07:40:54;92193.56;;;1.24;76.24
40592;BME280;26301;42.832;23.918;2024-01-15T07:43:20;92223.91;;;1.71;68.97
40592;BME280;26301;42.832;23.918;2024-01-15T07:45:45;92198.47;;;1.64;65.92
40592;BME280;26301;42.832;23.918;2024-01-15T07:48:12;92236.50;;;1.97;67.93
40592;BME280;26301;42.832;23.918;2024-01-15T07:50:39;92226.06;;;2.05;70.28
40592;BME280;26301;42.832;23.918;2024-01-15T07:53:05;92197.34;;;1.92;71.47
40592;BME280;26301;42.832;23.918;2024-01-15T07:55:30;92217.03;;;2.10;74.53
40592;BME280;26301;42.832;23.918;2024-01-15T07:57:56;92234.78;;;2.23;77.88
40592;BME280;26301;42.832;23.918;2024-01-15T08:00:24;92212.22;;;1.95;80.89
40592;BME280;26301;42.832;23.918;2024-01-15T08:02:50;92234.66;;;2.11;71.01
40592;BME280;26301;42.832;23.918;2024-01-15T08:05:16;92222.75;;;2.05;77.45
40592;BME280;26301;42.832;23.918;2024-01-15T08:07:41;92238.72;;;2.19;76.52
40592;BME280;26301;42.832;23.918;2024-01-15T08:10:08;92231.06;;;2.19;73.24
40592;BME280;26301;42.832;23.918;2024-01-15T08:12:33;92197.28;;;2.05;73.85
40592;BME280;26301;42.832;23.918;2024-01-15T08:14:59;92201.91;;;2.15;75.08
40592;BME280;26301;42.832;23.918;2024-01-15T08:17:24;92200.66;;;2.24;75.96
40592;BME280;26301;42.832;23.918;2024-01-15T08:19:54;92211.56;;;2.31;74.98
40592;BME280;26301;42.832;23.918;2024-01-15T08:22:20;92213.72;;;2.34;78.19
40592;BME280;26301;42.832;23.918;2024-01-15T08:24:45;92193.50;;;2.39;70.88
40592;BME280;26301;42.832;23.918;2024-01-15T08:27:11;92227.41;;;2.65;73.03
40592;BME280;26301;42.832;23.918;2024-01-15T08:29:36;92182.75;;;2.56;63.45
40592;BME280;26301;42.832;23.918;2024-01-15T08:32:02;92193.78;;;2.49;77.06
40592;BME280;26301;42.832;23.918;2024-01-15T08:34:28;92198.56;;;2.64;77.26
40592;BME280;26301;42.832;23.918;2024-01-15T08:36:53;92215.13;;;2.80;72.52
40592;BME280;26301;42.832;23.918;2024-01-15T08:39:19;92197.34;;;2.92;65.86
40592;BME280;26301;42.832;23.918;2024-01-15T08:41:44;92208.53;;;3.09;64.09
40592;BME280;26301;42.832;23.918;2024-01-15T08:44:12;92197.72;;;3.14;64.46
40592;BME280;26301;42.832;23.918;2024-01-15T08:46:37;92184.38;;;3.30;58.25
40592;BME280;26301;42.832;23.918;2024-01-15T08:49:03;92148.44;;;3.32;56.73
40592;BME280;26301;42.832;23.918;2024-01-15T08:51:28;92157.84;;;3.50;53.13
40592;BME280;26301;42.832;23.918;2024-01-15T08:53:55;92143.94;;;3.76;54.63
40592;BME280;26301;42.832;23.918;2024-01-15T08:56:21;92101.00;;;3.54;52.50
40592;BME280;26301;42.832;23.918;2024-01-15T08:58:46;92175.84;;;4.27;52.03
40592;BME280;26301;42.832;23.918;2024-01-15T09:01:12;92166.94;;;4.29;52.53
40592;BME280;26301;42.832;23.918;2024-01-15T09:03:37;92136.94;;;4.13;54.87
40592;BME280;26301;42.832;23.918;2024-01-15T09:06:03;92149.06;;;4.29;53.38
40592;BME280;26301;42.832;23.918;2024-01-15T09:08:28;92141.97;;;4.31;54.06
40592;BME280;26301;42.832;23.918;2024-01-15T09:10:54;92149.41;;;4.56;52.09
40592;BME280;26301;42.832;23.918;2024-01-15T09:13:19;92149.75;;;4.72;51.81
40592;BME280;26301;42.832;23.918;2024-01-15T09:15:45;92143.84;;;4.83;50.96
40592;BME280;26301;42.832;23.918;2024-01-15T09:18:10;92135.41;;;4.82;51.21
40592;BME280;26301;42.832;23.918;2024-01-15T09:20:36;92116.47;;;4.84;51.85
40592;BME280;26301;42.832;23.918;2024-01-15T09:23:03;92146.03;;;5.26;49.99
40592;BME280;26301;42.832;23.918;2024-01-15T09:25:29;92122.19;;;5.14;50.55
40592;BME280;26301;42.832;23.918;2024-01-15T09:27:54;92091.59;;;5.19;49.77
40592;BME280;26301;42.832;23.918;2024-01-15T09:30:20;92114.84;;;5.58;49.00
40592;BME280;26301;42.832;23.918;2024-01-15T09:32:46;92106.78;;;5.66;49.73
40592;BME280;26301;42.832;23.918;2024-01-15T09:35:11;92081.44;;;5.53;50.60
40592;BME280;26301;42.832;23.918;2024-01-15T09:37:36;92093.16;;;5.78;50.75
40592;BME280;26301;42.832;23.918;2024-01-15T09:40:04;92061.19;;;5.68;50.39
40592;BME280;26301;42.832;23.918;2024-01-15T09:42:31;92057.09;;;5.67;51.26
40592;BME280;26301;42.832;23.918;2024-01-15T09:44:58;92083.63;;;5.90;51.25
40592;BME280;26301;42.832;23.918;2024-01-15T09:47:23;92068.06;;;5.80;50.94
40592;BME280;26301;42.832;23.918;2024-01-15T09:49:50;92076.56;;;5.97;51.51
40592;BME280;26301;42.832;23.918;2024-01-15T09:52:16;92057.13;;;5.84;51.48
40592;BME280;26301;42.832;23.918;2024-01-15T09:54:45;92073.69;;;6.10;50.78
40592;BME280;26301;42.832;23.918;2024-01-15T09:57:11;92068.72;;;6.21;51.25
40592;BME280;26301;42.832;23.918;2024-01-15T09:59:38;92041.53;;;6.03;51.67
40592;BME280;26301;42.832;23.918;2024-01-15T10:02:04;92059.00;;;6.23;51.59
40592;BME280;26301;42.832;23.918;2024-01-15T10:04:31;92058.00;;;6.24;50.62
40592;BME280;26301;42.832;23.918;2024-01-15T10:06:57;92034.47;;;5.93;48.88
40592;BME280;26301;42.832;23.918;2024-01-15T10:09:25;92095.38;;;6.19;49.99
40592;BME280;26301;42.832;23.918;2024-01-15T10:11:51;92061.81;;;6.04;48.80
40592;BME280;26301;42.832;23.918;2024-01-15T10:14:16;92060.09;;;6.10;51.32
40592;BME280;26301;42.832;23.918;2024-01-15T10:16:42;92066.00;;;6.10;48.92
40592;BME280;26301;42.832;23.918;2024-01-15T10:19:08;92042.63;;;6.07;48.53
40592;BME280;26301;42.832;23.918;2024-01-15T10:21:35;92089.16;;;6.32;49.03
40592;BME280;26301;42.832;23.918;2024-01-15T10:24:01;92063.69;;;6.09;48.08
40592;BME280;26301;42.832;23.918;2024-01-15T10:26:31;92046.50;;;6.09;48.57
40592;BME280;26301;42.832;23.918;2024-01-15T10:28:58;92045.81;;;6.14;49.09
40592;BME280;26301;42.832;23.918;2024-01-15T10:31:25;92035.91;;;6.23;49.57
40592;BME280;26301;42.832;23.918;2024-01-15T10:33:51;92022.75;;;6.14;49.61
40592;BME280;26301;42.832;23.918;2024-01-15T10:36:17;92048.44;;;6.36;50.47
40592;BME280;26301;42.832;23.918;2024-01-15T10:38:44;92020.50;;;6.39;49.94
40592;BME280;26301;42.832;23.918;2024-01-15T10:41:10;92022.03;;;6.57;50.36
40592;BME280;26301;42.832;23.918;2024-01-15T10:43:35;92040.94;;;6.73;52.58
40592;BME280;26301;42.832;23.918;2024-01-15T10:46:02;91998.75;;;6.64;50.87
40592;BME280;26301;42.832;23.918;2024-01-15T10:48:27;92024.50;;;6.91;51.01
40592;BME280;26301;42.832;23.918;2024-01-15T10:50:56;92011.34;;;6.87;49.66
40592;BME280;26301;42.832;23.918;2024-01-15T10:53:23;92020.00;;;7.03;48.96
40592;BME280;26301;42.832;23.918;2024-01-15T10:55:50;92035.25;;;7.10;52.37
40592;BME280;26301;42.832;23.918;2024-01-15T10:58:16;92001.31;;;7.08;50.54
40592;BME280;26301;42.832;23.918;2024-01-15T11:00:43;91973.06;;;7.08;48.79
40592;BME280;26301;42.832;23.918;2024-01-15T11:03:09;91986.06;;;7.23;49.81
40592;BME280;26301;42.832;23.918;2024-01-15T11:08:05;91961.22;;;7.02;51.09
40592;BME280;26301;42.832;23.918;2024-01-15T11:16:09;91965.56;;;7.28;51.52
40592;BME280;26301;42.832;23.918;2024-01-15T11:18:37;91978.09;;;7.25;50.82
40592;BME280;26301;42.832;23.918;2024-01-15T11:23:51;91947.75;;;7.22;50.21
40592;BME280;26301;42.832;23.918;2024-01-15T11:26:44;91947.75;;;7.22;50.83
40592;BME280;26301;42.832;23.918;2024-01-15T11:29:35;91940.25;;;7.10;52.11
40592;BME280;26301;42.832;23.918;2024-01-15T11:32:08;91910.09;;;7.00;51.90
40592;BME280;26301;42.832;23.918;2024-01-15T11:34:53;91938.81;;;7.24;50.63
40592;BME280;26301;42.832;23.918;2024-01-15T11:37:20;91923.25;;;7.09;50.75
40592;BME280;26301;42.832;23.918;2024-01-15T11:39:46;91936.94;;;7.15;51.56
40592;BME280;26301;42.832;23.918;2024-01-15T11:42:13;91905.22;;;6.99;51.42
40592;BME280;26301;42.832;23.918;2024-01-15T11:44:39;91923.81;;;7.11;51.88
40592;BME280;26301;42.832;23.918;2024-01-15T11:47:07;91893.28;;;6.87;51.88
40592;BME280;26301;42.832;23.918;2024-01-15T11:50:00;91957.97;;;7.12;52.01
40592;BME280;26301;42.832;23.918;2024-01-15T11:52:36;91938.81;;;6.97;53.32
40592;BME280;26301;42.832;23.918;2024-01-15T12:00:14;91913.53;;;6.84;53.69
40592;BME280;26301;42.832;23.918;2024-01-15T12:02:44;91941.84;;;6.94;53.91
40592;BME280;26301;42.832;23.918;2024-01-15T12:05:11;91925.25;;;7.02;50.52
40592;BME280;26301;42.832;23.918;2024-01-15T12:07:41;91949.38;;;7.01;52.34
40592;BME280;26301;42.832;23.918;2024-01-15T12:10:11;91929.03;;;6.94;53.04
40592;BME280;26301;42.832;23.918;2024-01-15T12:12:57;91905.44;;;6.97;51.31
40592;BME280;26301;42.832;23.918;2024-01-15T12:15:24;91894.75;;;6.78;53.68
40592;BME280;26301;42.832;23.918;2024-01-15T12:17:49;91944.50;;;6.99;53.74
40592;BME280;26301;42.832;23.918;2024-01-15T12:20:15;91918.59;;;6.79;54.41
40592;BME280;26301;42.832;23.918;2024-01-15T12:22:43;91937.22;;;6.91;54.52
40592;BME280;26301;42.832;23.918;2024-01-15T12:25:09;91934.94;;;6.95;54.95
40592;BME280;26301;42.832;23.918;2024-01-15T12:27:35;91939.75;;;6.86;54.40
40592;BME280;26301;42.832;23.918;2024-01-15T12:30:01;91941.34;;;6.92;54.28
40592;BME280;26301;42.832;23.918;2024-01-15T12:32:26;91928.53;;;6.97;53.68
40592;BME280;26301;42.832;23.918;2024-01-15T12:34:52;91888.34;;;6.81;53.97
40592;BME280;26301;42.832;23.918;2024-01-15T12:37:20;91901.13;;;6.76;54.18
40592;BME280;26301;42.832;23.918;2024-01-15T12:39:46;91903.16;;;7.01;52.50
40592;BME280;26301;42.832;23.918;2024-01-15T12:42:14;91911.81;;;6.90;53.20
40592;BME280;26301;42.832;23.918;2024-01-15T12:44:39;91901.53;;;6.90;54.84
40592;BME280;26301;42.832;23.918;2024-01-15T12:47:05;91892.66;;;7.02;55.11
40592;BME280;26301;42.832;23.918;2024-01-15T12:49:31;91869.00;;;7.00;54.31
40592;BME280;26301;42.832;23.918;2024-01-15T12:51:57;91894.44;;;7.29;53.71
40592;BME280;26301;42.832;23.918;2024-01-15T12:54:23;91864.41;;;7.02;54.07
40592;BME280;26301;42.832;23.918;2024-01-15T12:56:50;91907.00;;;7.30;53.74
40592;BME280;26301;42.832;23.918;2024-01-15T12:59:16;91899.63;;;7.34;54.07
40592;BME280;26301;42.832;23.918;2024-01-15T13:01:41;91892.84;;;7.28;53.33
40592;BME280;26301;42.832;23.918;2024-01-15T13:04:07;91895.75;;;7.37;53.85